createdAt,value
2018-06-28T21:27:15.948Z,94286.88
2018-06-28T21:29:46.696Z,94286.49
2018-06-28T21:32:16.649Z,94289.44
2018-06-28T21:34:47.421Z,94281.31
2018-06-28T21:37:18.501Z,94284.56
2018-06-28T21:39:49.671Z,94276.81
2018-06-28T21:42:22.428Z,94279.74
2018-06-28T21:44:53.564Z,94275.91
2018-06-28T21:47:26.463Z,94276.52
2018-06-28T21:49:58.218Z,94280.03
2018-06-28T21:52:28.735Z,94276.23
2018-06-28T21:55:00.641Z,94275.28
2018-06-28T21:57:33.318Z,94268.80
2018-06-28T22:00:03.724Z,94265.30
2018-06-28T22:02:34.244Z,94267.06
2018-06-28T22:05:06.409Z,94273.44
2018-06-28T22:07:37.005Z,94268.66
2018-06-28T22:10:08.793Z,94269.77
2018-06-28T22:12:38.977Z,94272.04
2018-06-28T22:15:14.235Z,94270.57
2018-06-28T22:17:44.529Z,94278.13
2018-06-28T22:20:15.177Z,94274.97
2018-06-28T22:22:45.214Z,94266.69
2018-06-28T22:25:16.066Z,94266.91
2018-06-28T22:27:47.008Z,94268.44
2018-06-28T22:30:17.793Z,94264.77
2018-06-28T22:32:48.861Z,94271.00
2018-06-28T22:35:19.544Z,94265.95
2018-06-28T22:37:49.918Z,94263.53
2018-06-28T22:40:20.453Z,94262.86
2018-06-28T22:42:51.479Z,94266.56
2018-06-28T22:45:21.965Z,94271.44
2018-06-28T22:47:51.991Z,94269.83
2018-06-28T22:50:23.131Z,94277.03
2018-06-28T22:52:53.541Z,94277.48
2018-06-28T22:55:23.872Z,94272.66
2018-06-28T22:57:54.791Z,94276.83
2018-06-28T23:00:33.304Z,94277.21
2018-06-28T23:03:04.150Z,94266.38
2018-06-28T23:05:35.918Z,94274.74
2018-06-28T23:08:06.408Z,94265.86
2018-06-28T23:10:36.909Z,94264.94
2018-06-28T23:13:07.300Z,94264.78
2018-06-28T23:15:37.484Z,94262.95
2018-06-28T23:18:08.468Z,94256.06
2018-06-28T23:20:41.145Z,94258.02
2018-06-28T23:23:11.757Z,94254.66
2018-06-28T23:25:41.889Z,94254.21
2018-06-28T23:28:12.651Z,94256.27
2018-06-28T23:30:43.140Z,94255.67
2018-06-28T23:33:14.826Z,94252.45
2018-06-28T23:35:45.289Z,94246.28
2018-06-28T23:38:16.614Z,94246.45
2018-06-28T23:40:47.208Z,94249.08
2018-06-28T23:43:18.060Z,94239.31
2018-06-28T23:45:48.112Z,94234.28
2018-06-28T23:48:20.249Z,94245.73
2018-06-28T23:50:52.022Z,94244.14
2018-06-28T23:53:22.292Z,94248.39
2018-06-28T23:55:52.279Z,94241.50
2018-06-28T23:58:22.860Z,94239.50
